Time;durP1;ratioP1;P1;durP2;ratioP2;P2;SDS_P1;SDS_P2;PMS_P1;PMS_P2;Temp;Humidity;BMP_temperature;BMP_pressure;BME280_temperature;BME280_humidity;BME280_pressure;Samples;Min_cycle;Max_cycle;Signal;HPM_P1;HPM_P2
2022/08/23 00:03:28;;;;;;;2.42;1.52;;;;;;;20.13;68.42;100243.38;5068959;28;20033;-45
2022/08/23 00:05:55;;;;;;;3.85;2.60;;;;;;;20.13;68.32;100236.97;5074982;28;20044;-46
2022/08/23 00:08:21;;;;;;;3.63;1.48;;;;;;;20.16;68.57;100242.56;5075279;28;20098;-43
2022/08/23 00:10:49;;;;;;;3.17;1.42;;;;;;;20.17;68.57;100240.53;5075060;28;20040;-44
2022/08/23 00:13:16;;;;;;;2.88;1.50;;;;;;;20.16;68.88;100244.56;5074604;28;20087;-43
2022/08/23 00:15:42;;;;;;;1.83;1.30;;;;;;;20.17;68.64;100238.53;5073147;28;20047;-45
2022/08/23 00:18:09;;;;;;;4.65;1.33;;;;;;;20.18;68.83;100244.94;5071415;28;20448;-44
2022/08/23 00:20:36;;;;;;;6.88;1.38;;;;;;;20.17;69.00;100238.53;5075403;28;20086;-48
2022/08/23 00:23:03;;;;;;;4.15;2.45;;;;;;;20.18;69.02;100250.53;5075268;28;20040;-43
2022/08/23 00:25:30;;;;;;;1.60;1.00;;;;;;;20.16;69.15;100242.56;5058199;28;20098;-44
2022/08/23 00:28:17;;;;;;;1.98;1.25;;;;;;;20.15;69.13;100240.19;5075777;28;20064;-44
2022/08/23 00:31:04;;;;;;;5.38;1.48;;;;;;;20.14;69.28;100239.38;5046796;28;20117;-46
2022/08/23 00:33:51;;;;;;;2.45;1.20;;;;;;;20.13;69.82;100237.78;5069102;28;20083;-46
2022/08/23 00:36:39;;;;;;;2.40;1.27;;;;;;;20.12;69.80;100235.41;5065379;28;20086;-43
2022/08/23 00:39:26;;;;;;;3.10;1.08;;;;;;;20.12;69.61;100235.41;5057214;28;20045;-45
2022/08/23 00:48:54;;;;;;;5.35;1.83;;;;;;;20.09;70.03;100236.22;5073124;28;20653;-48
2022/08/23 00:51:44;;;;;;;2.95;1.10;;;;;;;20.09;69.96;100236.22;5070674;28;20094;-45
2022/08/23 00:54:41;;;;;;;2.35;1.50;;;;;;;20.09;70.30;100236.22;5073873;28;20060;-42
2022/08/23 00:57:29;;;;;;;3.15;1.02;;;;;;;20.08;70.49;100240.25;5073383;28;20252;-44
2022/08/23 01:00:17;;;;;;;2.60;1.30;;;;;;;20.09;70.51;100239.03;5077174;28;20078;-44
2022/08/23 01:03:07;;;;;;;2.47;1.17;;;;;;;20.08;70.79;100224.19;5074435;28;20087;-42
2022/08/23 01:06:02;;;;;;;6.95;1.38;;;;;;;20.08;70.55;100235.44;5072788;28;20089;-43
2022/08/23 01:08:56;;;;;;;4.05;1.50;;;;;;;20.04;71.04;100221.41;5056734;28;20130;-43
2022/08/23 01:11:57;;;;;;;3.90;1.50;;;;;;;20.02;70.92;100223.84;5071888;28;20041;-43
2022/08/23 01:14:57;;;;;;;3.42;1.38;;;;;;;19.98;71.20;100220.31;5074444;28;20037;-44
2022/08/23 01:17:55;;;;;;;3.58;1.25;;;;;;;19.95;71.47;100215.53;5075741;28;20494;-42
2022/08/23 01:21:04;;;;;;;4.57;1.58;;;;;;;19.89;71.44;100211.59;5069447;28;20419;-42
2022/08/23 01:23:59;;;;;;;3.50;1.20;;;;;;;19.84;71.38;100200.81;5069826;28;20052;-46
2022/08/23 01:26:47;;;;;;;2.45;1.30;;;;;;;19.79;71.82;100206.91;5072454;28;20522;-44
2022/08/23 01:29:34;;;;;;;3.15;1.40;;;;;;;19.73;71.99;100202.97;5073275;28;20087;-44
2022/08/23 01:32:21;;;;;;;5.65;1.58;;;;;;;19.71;71.79;100211.03;5069339;28;20037;-43
2022/08/23 01:35:09;;;;;;;3.38;1.25;;;;;;;19.70;71.75;100209.41;5063210;28;20137;-47
2022/08/23 01:37:56;;;;;;;3.25;1.40;;;;;;;19.60;71.98;100209.53;5065041;28;20053;-44
2022/08/23 01:40:43;;;;;;;5.00;1.63;;;;;;;19.52;72.43;100205.22;5072323;28;20048;-43
2022/08/23 01:43:30;;;;;;;4.22;2.05;;;;;;;19.42;72.71;100201.34;5073666;28;20080;-42
2022/08/23 01:46:20;;;;;;;6.15;1.80;;;;;;;19.35;73.06;100201.41;5072941;28;20068;-43
2022/08/23 01:49:08;;;;;;;5.80;1.45;;;;;;;19.28;73.15;100215.50;5070378;28;20102;-43
2022/08/23 01:51:55;;;;;;;5.63;1.70;;;;;;;19.22;72.92;100212.34;5058619;28;20076;-43
2022/08/23 01:54:42;;;;;;;4.80;1.80;;;;;;;19.17;73.08;100223.22;5068996;28;20099;-46
2022/08/23 01:57:31;;;;;;;6.10;2.45;;;;;;;19.12;73.48;100223.66;5072519;28;20060;-43
2022/08/23 02:00:21;;;;;;;5.07;1.70;;;;;;;19.03;73.75;100228.97;5074415;28;20040;-43
2022/08/23 02:03:10;;;;;;;3.28;1.35;;;;;;;19.07;73.39;100219.31;5068465;28;20036;-44
2022/08/23 02:05:57;;;;;;;4.30;1.67;;;;;;;19.04;73.67;100234.16;5071278;28;20530;-43
2022/08/23 02:09:00;;;;;;;4.20;2.35;;;;;;;19.07;73.29;100238.94;5070903;28;20175;-48
2022/08/23 02:11:49;;;;;;;5.97;2.53;;;;;;;19.09;73.19;100233.72;5067612;28;20402;-42
2022/08/23 02:14:37;;;;;;;7.03;2.03;;;;;;;19.13;73.02;100219.66;5072312;28;20139;-43
2022/08/23 02:17:27;;;;;;;5.97;2.20;;;;;;;19.16;72.85;100230.06;5073620;28;20047;-44
2022/08/23 02:20:14;;;;;;;4.22;1.73;;;;;;;19.15;73.05;100228.44;5070374;28;20165;-48
2022/08/23 02:23:01;;;;;;;2.45;1.88;;;;;;;19.13;73.05;100236.50;5064551;28;20523;-47
2022/08/23 02:25:50;;;;;;;3.40;2.13;;;;;;;19.10;73.22;100251.34;5068287;28;20131;-49
2022/08/23 02:28:37;;;;;;;9.88;3.38;;;;;;;19.03;73.80;100231.78;5068808;28;20414;-46
2022/08/23 02:31:25;;;;;;;7.03;2.80;;;;;;;19.03;73.93;100243.81;5064567;28;20115;-44
2022/08/23 02:34:16;;;;;;;7.72;3.60;;;;;;;19.02;74.17;100244.22;5073273;28;20043;-43
2022/08/23 02:37:04;;;;;;;7.38;3.70;;;;;;;19.03;74.41;100226.16;5071355;28;20129;-43
2022/08/23 02:39:51;;;;;;;6.15;2.80;;;;;;;19.06;74.40;100225.34;5071441;28;20059;-44
2022/08/23 02:42:38;;;;;;;6.55;2.75;;;;;;;19.10;74.34;100223.28;5072818;28;20048;-46
2022/08/23 02:45:27;;;;;;;5.97;3.15;;;;;;;19.10;74.39;100223.28;5070886;28;20033;-42
2022/08/23 02:48:14;;;;;;;5.97;3.60;;;;;;;19.07;74.77;100229.72;5048089;28;20406;-45
2022/08/23 02:51:05;;;;;;;7.55;3.30;;;;;;;19.04;74.76;100217.31;5070926;28;20120;-43
2022/08/23 02:53:52;;;;;;;8.30;3.58;;;;;;;19.04;74.67;100219.34;5072527;28;20125;-45
2022/08/23 02:56:39;;;;;;;9.73;2.97;;;;;;;19.01;74.91;100220.19;5067633;28;20103;-48
2022/08/23 02:59:26;;;;;;;7.15;3.72;;;;;;;18.94;75.27;100211.81;5071612;28;20044;-43
2022/08/23 03:40:22;;;;;;;7.63;3.50;;;;;;;18.46;77.46;100226.59;1457449;26;20613;-44
2022/08/23 03:43:03;;;;;;;6.53;3.40;;;;;;;18.46;77.28;100237.00;5070177;28;20043;-45
2022/08/23 03:45:30;;;;;;;7.18;3.70;;;;;;;18.45;77.60;100225.00;5056969;28;20048;-42
2022/08/23 03:47:57;;;;;;;8.70;3.88;;;;;;;18.44;77.70;100226.22;5064824;28;20635;-42
2022/08/23 03:50:25;;;;;;;6.15;3.80;;;;;;;18.44;78.01;100229.00;5070388;28;20036;-44
2022/08/23 03:52:52;;;;;;;5.38;4.43;;;;;;;18.43;77.96;100221.81;5071741;28;20041;-43
2022/08/23 03:55:19;;;;;;;9.48;3.38;;;;;;;18.44;77.85;100229.00;5066834;28;20106;-43
2022/08/23 03:57:47;;;;;;;7.70;3.75;;;;;;;18.46;77.87;100226.59;5061505;28;20044;-43
2022/08/23 04:00:15;;;;;;;8.88;3.83;;;;;;;18.44;77.72;100217.00;5073713;28;20438;-44
2022/08/23 04:02:46;;;;;;;6.72;3.28;;;;;;;18.41;77.73;100213.00;5061863;28;20072;-44
2022/08/23 04:05:13;;;;;;;5.97;3.15;;;;;;;18.40;77.72;100217.00;5075023;28;20045;-44
2022/08/23 04:07:39;;;;;;;8.35;3.90;;;;;;;18.39;77.62;100225.84;5074185;28;20444;-43
2022/08/23 04:10:08;;;;;;;8.38;4.32;;;;;;;18.34;77.89;100221.47;5073398;28;20032;-44
2022/08/23 04:12:35;;;;;;;7.05;3.30;;;;;;;18.31;78.11;100222.28;5065882;28;20453;-43
2022/08/23 04:15:02;;;;;;;7.25;3.10;;;;;;;18.27;78.03;100225.13;5074945;28;20066;-44
2022/08/23 04:17:29;;;;;;;4.95;3.13;;;;;;;18.27;78.37;100241.13;5075079;28;20094;-44
2022/08/23 04:19:58;;;;;;;7.22;3.55;;;;;;;18.30;78.57;100240.31;5068316;28;20072;-44
2022/08/23 04:22:25;;;;;;;9.27;3.63;;;;;;;18.33;78.37;100233.09;5073145;28;20083;-44
2022/08/23 04:24:51;;;;;;;7.63;3.38;;;;;;;18.37;78.66;100245.09;5039919;28;20103;-43
2022/08/23 04:35:00;;;;;;;9.07;4.35;;;;;;;18.44;77.84;100237.44;5066893;28;20493;-44
2022/08/23 04:37:27;;;;;;;8.43;3.40;;;;;;;18.46;77.87;100235.00;5074416;28;20363;-46
2022/08/23 04:42:39;;;;;;;6.38;2.92;;;;;;;18.49;78.14;100242.63;5071180;28;20057;-43
2022/08/23 04:45:07;;;;;;;3.58;2.88;;;;;;;18.51;78.26;100233.78;5071881;28;20075;-47
2022/08/23 04:47:35;;;;;;;5.75;3.08;;;;;;;18.51;78.35;100228.19;5073033;28;20563;-43
2022/08/23 04:50:02;;;;;;;6.18;2.85;;;;;;;18.51;77.98;100231.00;5074792;28;20448;-45
2022/08/23 04:52:29;;;;;;;5.57;3.63;;;;;;;18.49;78.11;100239.81;5071128;28;20045;-47
2022/08/23 04:54:56;;;;;;;5.78;3.22;;;;;;;18.48;77.94;100235.41;5072941;28;20044;-43
2022/08/23 04:57:24;;;;;;;6.90;3.55;;;;;;;18.47;77.81;100239.44;5073540;28;20486;-42
2022/08/23 04:59:51;;;;;;;8.25;3.25;;;;;;;18.43;77.92;100237.81;5072499;28;20098;-47
2022/08/23 05:02:19;;;;;;;5.07;2.95;;;;;;;18.40;77.94;100249.88;5069664;28;20080;-44
2022/08/23 05:04:46;;;;;;;6.03;3.60;;;;;;;18.37;77.93;100243.09;5075816;28;20098;-42
2022/08/23 05:07:14;;;;;;;5.20;3.38;;;;;;;18.35;77.89;100248.28;5073912;28;20086;-44
2022/08/23 05:09:41;;;;;;;8.80;3.15;;;;;;;18.31;77.87;100253.13;5071681;28;20062;-46
2022/08/23 05:12:07;;;;;;;8.30;2.70;;;;;;;18.25;77.91;100260.34;5070498;28;20048;-42
2022/08/23 05:14:35;;;;;;;6.75;3.40;;;;;;;18.21;78.24;100251.19;5072923;28;20111;-44
2022/08/23 05:17:02;;;;;;;8.05;3.22;;;;;;;18.17;78.14;100258.78;5073020;28;20452;-43
2022/08/23 05:19:29;;;;;;;6.57;3.22;;;;;;;18.15;78.27;100264.03;5075960;28;20044;-43
2022/08/23 05:21:56;;;;;;;10.15;3.03;;;;;;;18.10;78.18;100264.44;5081442;28;20098;-45
2022/08/23 05:24:23;;;;;;;5.95;3.42;;;;;;;18.09;78.25;100271.25;5073065;28;20044;-45
2022/08/23 05:26:50;;;;;;;5.32;3.22;;;;;;;18.08;78.10;100272.47;5071880;28;20040;-43
2022/08/23 05:29:17;;;;;;;4.80;3.00;;;;;;;18.03;78.27;100275.69;5073488;28;20032;-43
2022/08/23 05:31:47;;;;;;;5.95;2.65;;;;;;;18.04;78.29;100277.28;5071622;28;20037;-43
2022/08/23 05:34:15;;;;;;;4.85;2.75;;;;;;;18.06;78.17;100278.47;5072284;28;20045;-44
2022/08/23 05:36:48;;;;;;;5.65;2.50;;;;;;;18.05;78.22;100290.09;5065568;28;20040;-43
2022/08/23 05:39:22;;;;;;;4.15;2.63;;;;;;;18.03;78.21;100298.09;5072836;28;20041;-43
2022/08/23 05:42:02;;;;;;;6.03;2.55;;;;;;;18.03;77.91;100287.69;5069804;28;20048;-44
2022/08/23 05:44:29;;;;;;;5.10;2.13;;;;;;;18.05;77.98;100287.28;5055289;28;20063;-44
2022/08/23 05:47:05;;;;;;;2.60;2.38;;;;;;;18.05;77.82;100295.69;5069550;28;20070;-43
2022/08/23 05:49:38;;;;;;;3.90;2.40;;;;;;;18.04;77.98;100288.47;5068843;28;20516;-44
2022/08/23 05:52:07;;;;;;;3.05;1.90;;;;;;;18.06;77.84;100291.66;5071577;28;20051;-44
2022/08/23 05:54:34;;;;;;;20.35;3.20;;;;;;;18.08;77.70;100294.88;5066618;28;20045;-43
2022/08/23 05:57:01;;;;;;;3.05;1.75;;;;;;;18.10;77.80;100298.06;5071362;28;20040;-43
2022/08/23 05:59:28;;;;;;;5.32;1.65;;;;;;;18.11;77.79;100299.66;5073225;28;20079;-44
2022/08/23 06:01:56;;;;;;;4.88;2.10;;;;;;;18.12;77.47;100301.25;5070295;28;20037;-43
2022/08/23 06:04:23;;;;;;;2.47;1.83;;;;;;;18.13;77.60;100311.25;5072199;28;20487;-44
2022/08/23 06:06:49;;;;;;;2.67;1.50;;;;;;;18.16;77.42;100313.25;5072024;28;20045;-47
2022/08/23 06:09:17;;;;;;;3.90;1.40;;;;;;;18.18;77.21;100311.66;5072847;28;20434;-47
2022/08/23 06:11:46;;;;;;;2.38;1.85;;;;;;;18.19;77.25;100304.81;5067429;28;20040;-45
2022/08/23 06:14:13;;;;;;;3.35;1.83;;;;;;;18.21;77.17;100310.81;5059241;28;20044;-42
2022/08/23 06:16:44;;;;;;;18.67;1.58;;;;;;;18.23;77.14;100304.81;5071334;28;20052;-43
2022/08/23 06:19:13;;;;;;;6.43;1.92;;;;;;;18.21;76.94;100316.41;5070149;28;20048;-43
2022/08/23 06:21:40;;;;;;;2.97;2.05;;;;;;;18.22;77.05;100317.22;5071820;28;20044;-47
2022/08/23 06:24:27;;;;;;;4.22;2.33;;;;;;;18.22;76.91;100317.22;5057762;28;20470;-46
2022/08/23 06:27:15;;;;;;;4.38;1.48;;;;;;;18.19;76.80;100321.63;5053424;28;20072;-43
2022/08/23 06:30:02;;;;;;;1.70;1.60;;;;;;;18.20;76.65;100320.44;5071052;28;20047;-43
2022/08/23 06:37:04;;;;;;;4.18;1.52;;;;;;;18.32;76.36;100321.97;5067409;28;20048;-42
2022/08/23 06:39:51;;;;;;;3.67;1.55;;;;;;;18.35;75.97;100325.97;5067304;28;20079;-44
2022/08/23 06:42:39;;;;;;;1.63;1.23;;;;;;;18.38;75.98;100334.34;5070688;28;20045;-45
2022/08/23 06:45:27;;;;;;;1.15;1.05;;;;;;;18.39;76.22;100338.75;5069266;28;20127;-43
2022/08/23 06:48:21;;;;;;;1.60;1.10;;;;;;;18.41;76.01;100332.75;5073353;28;20036;-44
2022/08/23 06:51:28;;;;;;;3.28;1.52;;;;;;;18.42;75.92;100342.75;5073607;28;20040;-44
2022/08/23 06:54:21;;;;;;;2.45;1.30;;;;;;;18.42;75.93;100339.94;5060477;28;20037;-44
2022/08/23 06:56:49;;;;;;;2.65;1.30;;;;;;;18.45;75.77;100341.94;5072504;28;20055;-45
2022/08/23 06:59:17;;;;;;;5.13;1.38;;;;;;;18.48;75.74;100335.56;5073021;28;20045;-45
2022/08/23 07:01:46;;;;;;;2.08;1.45;;;;;;;18.54;75.72;100340.31;5052425;28;20095;-45
2022/08/23 07:04:17;;;;;;;2.47;1.45;;;;;;;18.56;75.40;100337.88;5063156;28;20119;-46
2022/08/23 07:06:45;;;;;;;2.63;1.10;;;;;;;18.57;75.33;100339.50;5072770;28;20510;-44
2022/08/23 07:09:12;;;;;;;2.08;0.98;;;;;;;18.58;75.38;100335.50;5041843;28;20397;-47
2022/08/23 07:11:40;;;;;;;3.70;1.02;;;;;;;18.62;75.42;100339.06;5069180;28;20082;-43
2022/08/23 07:14:12;;;;;;;1.52;1.20;;;;;;;18.68;75.21;100345.84;5069996;28;20040;-44
2022/08/23 07:20:57;;;;;;;3.75;2.63;;;;;;;18.74;74.71;100355.41;5057690;28;20127;-45
2022/08/23 07:27:45;;;;;;;1.10;1.00;;;;;;;18.76;74.42;100357.81;5068874;28;20059;-46
2022/08/23 07:30:32;;;;;;;2.58;1.55;;;;;;;18.82;74.37;100356.97;5071840;28;20157;-45
2022/08/23 07:33:20;;;;;;;2.03;0.90;;;;;;;18.96;74.45;100366.50;5065536;28;20597;-45
2022/08/23 07:36:09;;;;;;;2.72;0.98;;;;;;;19.08;74.42;100368.81;5075495;28;20041;-44
2022/08/23 07:38:56;;;;;;;1.35;1.00;;;;;;;19.15;73.73;100383.59;5077444;28;20048;-47
2022/08/23 07:54:32;;;;;;;2.58;0.70;;;;;;;19.01;72.92;100392.09;5070270;28;20492;-45
2022/08/23 07:56:59;;;;;;;1.52;0.82;;;;;;;18.97;73.26;100387.75;5073967;28;20045;-47
2022/08/23 08:03:18;;;;;;;1.45;1.00;;;;;;;18.95;73.22;100392.97;5072711;28;20051;-50
2022/08/23 08:05:45;;;;;;;1.83;1.10;;;;;;;19.06;72.92;100393.69;5074910;28;20072;-43
2022/08/23 08:08:12;;;;;;;4.75;1.33;;;;;;;19.14;72.63;100400.88;5071585;28;20106;-48
2022/08/23 08:10:40;;;;;;;3.83;0.93;;;;;;;19.21;72.52;100401.59;5064130;28;20041;-45
2022/08/23 08:13:07;;;;;;;1.38;0.82;;;;;;;19.27;71.99;100410.38;5076363;28;20045;-47
2022/08/23 08:15:34;;;;;;;3.38;1.00;;;;;;;19.28;71.76;100403.56;5074526;28;20044;-46
2022/08/23 08:18:22;;;;;;;4.55;1.02;;;;;;;19.24;71.82;100402.78;5071857;28;20036;-42
2022/08/23 08:21:12;;;;;;;0.88;0.88;;;;;;;19.28;71.68;100400.75;5076129;28;20153;-44
2022/08/23 08:28:11;;;;;;;6.50;1.73;;;;;;;19.46;70.86;100415.47;5066140;28;20045;-45
2022/08/23 08:31:03;;;;;;;0.45;0.38;;;;;;;19.44;70.87;100421.50;5062918;28;20048;-44
2022/08/23 08:33:50;;;;;;;1.17;0.68;;;;;;;19.41;70.58;100415.91;5072752;28;20041;-49
2022/08/23 08:36:40;;;;;;;1.42;0.60;;;;;;;19.40;70.33;100425.56;5075935;28;20135;-45
2022/08/23 08:39:30;;;;;;;1.58;1.08;;;;;;;19.39;70.28;100423.94;5062477;28;20040;-48
2022/08/23 08:46:48;;;;;;;1.13;0.60;;;;;;;19.47;70.60;100424.69;5071592;28;20560;-45
2022/08/23 08:49:41;;;;;;;1.50;0.77;;;;;;;19.42;70.42;100423.13;5074567;28;20048;-45
2022/08/23 08:52:39;;;;;;;2.38;0.60;;;;;;;19.47;70.87;100417.06;5075357;28;20505;-44
2022/08/23 08:55:31;;;;;;;1.83;0.80;;;;;;;19.66;70.52;100415.72;5064312;28;20055;-43
2022/08/23 08:58:42;;;;;;;4.45;1.02;;;;;;;19.81;70.02;100425.59;5075202;28;20124;-45
2022/08/23 09:01:32;;;;;;;3.40;1.13;;;;;;;19.84;69.80;100421.97;5042046;28;20049;-45
2022/08/23 09:04:33;;;;;;;1.42;0.60;;;;;;;19.89;69.64;100419.50;5065049;28;20147;-45
2022/08/23 09:11:19;;;;;;;5.60;1.65;;;;;;;20.71;68.90;100425.03;5063029;28;20123;-46
2022/08/23 09:13:58;;;;;;;1.33;0.70;;;;;;;22.02;67.55;100435.13;5075170;28;20052;-44
2022/08/23 09:16:45;;;;;;;2.63;0.73;;;;;;;23.32;64.69;100425.94;5073535;28;20051;-43
2022/08/23 09:19:12;;;;;;;1.50;0.60;;;;;;;24.09;61.61;100433.75;5055111;28;20044;-43
2022/08/23 09:21:48;;;;;;;1.40;0.57;;;;;;;24.36;59.76;100437.03;5038058;28;20083;-45
2022/08/23 09:24:15;;;;;;;1.20;0.70;;;;;;;24.04;59.37;100437.88;5055040;28;20079;-47
2022/08/23 09:26:42;;;;;;;1.48;0.80;;;;;;;23.65;58.71;100435.25;5054950;28;20041;-43
2022/08/23 09:29:17;;;;;;;1.33;0.80;;;;;;;23.21;58.89;100430.25;5073787;28;20436;-45
2022/08/23 09:32:06;;;;;;;1.13;0.50;;;;;;;22.99;59.02;100441.22;5071806;28;20494;-45
2022/08/23 09:34:41;;;;;;;0.90;0.50;;;;;;;22.98;58.50;100448.91;5063345;28;20052;-43
2022/08/23 09:37:21;;;;;;;1.02;0.52;;;;;;;23.06;58.22;100443.88;5054826;28;20041;-43
2022/08/23 09:39:52;;;;;;;1.50;0.50;;;;;;;23.37;57.32;100450.88;5056793;28;20041;-45
2022/08/23 09:42:27;;;;;;;0.45;0.35;;;;;;;23.75;56.41;100442.66;5036596;28;20056;-44
2022/08/23 09:44:55;;;;;;;0.75;0.60;;;;;;;23.91;55.44;100447.50;5037006;28;20037;-44
2022/08/23 09:47:30;;;;;;;0.60;0.50;;;;;;;;;;5070785;28;20053;-42
2022/08/23 09:50:05;;;;;;;0.85;0.47;;;;;;;;;;5074524;28;20040;-44
2022/08/23 09:52:36;;;;;;;2.58;0.57;;;;;;;23.90;55.16;100443.13;5055784;28;20052;-45
2022/08/23 09:55:23;;;;;;;0.80;0.40;;;;;;;23.67;55.19;100440.47;5053752;28;20037;-46
2022/08/23 09:57:51;;;;;;;0.38;0.38;;;;;;;23.47;55.33;100434.91;5058984;28;20055;-44
2022/08/23 10:00:29;;;;;;;1.70;0.30;;;;;;;23.40;54.76;100435.88;5072470;28;20092;-48
2022/08/23 10:03:24;;;;;;;2.10;0.40;;;;;;;23.36;54.57;100434.31;5054305;28;20052;-44
2022/08/23 10:05:57;;;;;;;0.63;0.35;;;;;;;23.44;54.26;100432.94;5054588;28;20048;-44
2022/08/23 10:08:28;;;;;;;2.92;0.55;;;;;;;23.57;53.49;100431.00;5060971;28;20041;-45
2022/08/23 10:11:04;;;;;;;0.30;0.17;;;;;;;23.29;53.79;100432.47;5060926;28;20037;-43
2022/08/23 10:13:35;;;;;;;1.15;0.30;;;;;;;23.23;53.99;100439.06;5073501;28;20102;-44
2022/08/23 10:16:38;;;;;;;0.77;0.47;;;;;;;23.48;53.25;100440.09;5064753;28;20498;-42
2022/08/23 10:19:42;;;;;;;0.82;0.45;;;;;;;23.26;53.33;100435.38;5070676;28;20185;-46
2022/08/23 10:22:59;;;;;;;3.95;0.68;;;;;;;24.13;52.56;100440.09;5071719;28;20125;-45
2022/08/23 10:29:50;;;;;;;2.08;0.30;;;;;;;26.85;46.97;100443.47;5028240;28;20493;-43
2022/08/23 10:32:54;;;;;;;0.88;0.25;;;;;;;26.60;47.02;100437.91;5071155;28;20040;-43
2022/08/23 10:36:09;;;;;;;0.80;0.52;;;;;;;26.27;47.75;100434.63;5071583;28;20394;-43
2022/08/23 10:39:00;;;;;;;0.45;0.20;;;;;;;25.60;48.61;100439.00;5068974;28;20045;-46
2022/08/23 10:42:10;;;;;;;0.90;0.15;;;;;;;25.22;48.81;100436.94;5064844;28;20449;-43
2022/08/23 10:45:10;;;;;;;0.98;0.20;;;;;;;24.82;49.56;100435.75;5065119;28;20166;-46
2022/08/23 10:48:27;;;;;;;2.70;0.38;;;;;;;24.91;49.77;100437.91;5071345;28;20083;-44
2022/08/23 10:51:25;;;;;;;0.40;0.15;;;;;;;25.39;48.37;100441.22;5072488;28;20029;-44
2022/08/23 10:54:02;;;;;;;0.40;0.20;;;;;;;24.84;49.40;100438.91;5071859;28;20500;-45
2022/08/23 11:22:56;;;;;;;3.38;0.30;;;;;;;23.38;51.88;100446.81;5067240;28;20102;-46
2022/08/23 11:29:19;;;;;;;1.98;0.20;;;;;;;23.35;51.45;100447.66;5066646;28;20048;-45
2022/08/23 11:31:57;;;;;;;1.45;0.30;;;;;;;23.24;51.34;100449.94;5074658;28;20068;-44
2022/08/23 11:34:29;;;;;;;1.98;0.55;;;;;;;23.08;51.17;100449.13;5076005;28;20433;-42
2022/08/23 11:40:42;;;;;;;0.30;0.17;;;;;;;23.22;51.48;100441.09;5074507;28;20040;-45
2022/08/23 11:43:36;;;;;;;0.63;0.20;;;;;;;23.37;51.10;100433.94;5076612;28;20040;-46
2022/08/23 11:46:24;;;;;;;0.20;0.20;;;;;;;23.46;51.34;100434.09;5053432;28;20040;-45
2022/08/23 11:49:26;;;;;;;0.47;0.47;;;;;;;23.57;50.88;100426.16;5075225;28;20068;-43
2022/08/23 11:52:22;;;;;;;;;;;;;;;23.63;51.19;100427.22;5072394;28;20151;-46
2022/08/23 11:56:00;;;;;;;0.90;0.60;;;;;;;23.79;50.88;100426.44;5074528;28;20047;-43
2022/08/23 11:58:49;;;;;;;1.48;0.35;;;;;;;23.78;50.40;100429.69;4996731;28;20056;-43
2022/08/23 12:01:39;;;;;;;0.40;0.20;;;;;;;23.75;50.51;100436.25;4994368;28;20049;-43
2022/08/23 12:04:44;;;;;;;0.20;0.20;;;;;;;23.61;50.30;100438.19;5070541;28;20098;-42
2022/08/23 12:08:01;;;;;;;0.60;0.17;;;;;;;23.34;50.35;100431.94;5067114;28;20037;-47
2022/08/23 12:10:49;;;;;;;2.92;0.20;;;;;;;23.37;50.92;100424.66;5056013;28;20052;-43
2022/08/23 12:13:51;;;;;;;4.78;1.67;;;;;;;23.60;50.33;100422.47;5065405;28;20041;-47
2022/08/23 12:16:38;;;;;;;0.97;0.33;;;;;;;23.82;49.75;100439.69;5064387;28;20094;-46
2022/08/23 12:19:38;;;;;;;1.98;0.30;;;;;;;24.04;49.22;100423.72;5074048;28;20079;-43
2022/08/23 12:22:52;;;;;;;0.30;0.10;;;;;;;24.35;49.11;100420.50;5075292;28;20087;-45
2022/08/23 12:25:41;;;;;;;1.58;0.25;;;;;;;24.44;48.55;100431.97;5068954;28;20513;-49
2022/08/23 12:28:44;;;;;;;0.47;0.30;;;;;;;24.46;48.45;100435.16;5073166;28;20445;-44
2022/08/23 12:31:50;;;;;;;0.32;0.15;;;;;;;24.30;48.83;100444.50;5069893;28;20056;-51
2022/08/23 12:35:15;;;;;;;1.52;0.20;;;;;;;24.20;48.93;100434.25;5072390;28;20464;-52
2022/08/23 12:38:22;;;;;;;1.05;0.20;;;;;;;24.13;49.19;100445.75;5066715;28;20041;-47
2022/08/23 12:41:24;;;;;;;0.68;0.32;;;;;;;24.01;48.94;100446.47;5064606;28;20040;-49
2022/08/23 12:44:17;;;;;;;0.30;0.30;;;;;;;24.11;48.60;100456.72;5074753;28;20429;-48
2022/08/23 12:51:11;;;;;;;1.80;0.30;;;;;;;24.01;49.17;100449.28;5074363;28;20047;-50
2022/08/23 12:54:12;;;;;;;0.43;0.30;;;;;;;24.29;48.54;100445.72;5074002;28;20166;-49
2022/08/23 12:56:59;;;;;;;1.52;0.47;;;;;;;24.41;48.28;100450.63;5070183;28;20541;-51
2022/08/23 12:59:32;;;;;;;1.63;0.40;;;;;;;24.59;47.37;100445.28;5062868;28;20041;-51
2022/08/23 13:02:04;;;;;;;2.38;0.30;;;;;;;24.78;46.88;100446.34;5069870;28;20492;-52
2022/08/23 13:04:34;;;;;;;0.40;0.40;;;;;;;24.85;47.08;100445.38;5074070;28;20554;-52
2022/08/23 13:07:06;;;;;;;2.17;0.40;;;;;;;24.71;46.56;100447.34;5074710;28;20071;-52
2022/08/23 13:09:36;;;;;;;2.00;0.43;;;;;;;24.65;46.16;100454.78;5073597;28;20045;-50
2022/08/23 13:12:06;;;;;;;3.20;0.30;;;;;;;24.73;46.00;100447.69;5070891;28;20555;-52
2022/08/23 13:14:41;;;;;;;0.85;0.35;;;;;;;24.86;46.06;100438.47;5064435;28;20055;-49
2022/08/23 13:17:26;;;;;;;0.40;0.30;;;;;;;25.10;45.58;100442.59;5073397;28;20123;-51
2022/08/23 13:20:21;;;;;;;1.60;0.20;;;;;;;25.32;45.04;100457.66;5074945;28;20070;-52
2022/08/23 13:23:08;;;;;;;1.67;0.43;;;;;;;25.37;44.56;100448.59;5075517;28;20407;-52
2022/08/23 13:25:55;;;;;;;0.50;0.28;;;;;;;25.39;44.27;100457.44;5072199;28;20045;-53
2022/08/23 13:29:03;;;;;;;2.95;0.30;;;;;;;25.38;43.89;100461.53;5072740;28;20154;-48
2022/08/23 13:32:02;;;;;;;0.80;0.30;;;;;;;25.54;43.90;100457.81;5068774;28;20540;-53
2022/08/23 13:34:55;;;;;;;0.93;0.30;;;;;;;25.49;43.63;100467.69;5074853;28;20045;-52
2022/08/23 13:37:45;;;;;;;8.98;1.05;;;;;;;25.47;43.12;100469.38;5061036;28;20090;-54
2022/08/23 13:40:43;;;;;;;1.15;0.43;;;;;;;25.60;43.82;100462.44;5072508;28;20067;-53
2022/08/23 13:43:32;;;;;;;2.03;1.25;;;;;;;25.76;43.07;100456.63;5073390;28;20106;-52
2022/08/23 13:46:23;;;;;;;2.03;0.60;;;;;;;25.81;42.48;100472.31;5055274;28;20188;-53
2022/08/23 13:53:13;;;;;;;1.38;0.40;;;;;;;25.99;42.13;100461.16;5063849;28;20119;-52
2022/08/23 13:56:01;;;;;;;1.95;0.25;;;;;;;25.68;42.38;100460.97;5072909;28;20040;-54
2022/08/23 13:59:01;;;;;;;3.22;0.32;;;;;;;25.60;42.30;100456.78;5074091;28;20438;-49
2022/08/23 14:02:29;;;;;;;3.45;1.35;;;;;;;25.71;42.51;100454.38;5071106;28;20048;-50
2022/08/23 14:08:47;;;;;;;1.55;0.60;;;;;;;26.48;42.07;100456.56;5066398;28;20119;-53
2022/08/23 14:11:14;;;;;;;3.05;0.60;;;;;;;26.74;42.28;100462.91;5073632;28;20044;-51
2022/08/23 14:13:47;;;;;;;0.85;0.55;;;;;;;26.67;43.01;100460.34;5064454;28;20132;-51
2022/08/23 14:20:15;;;;;;;2.00;0.65;;;;;;;26.45;44.11;100459.56;5073935;28;20040;-51
2022/08/23 14:23:02;;;;;;;3.20;0.90;;;;;;;26.23;44.06;100461.56;5068781;28;20072;-54
2022/08/23 14:29:58;;;;;;;3.25;0.85;;;;;;;26.46;43.79;100444.09;5073733;28;20044;-52
2022/08/23 14:36:58;;;;;;;3.78;0.90;;;;;;;26.06;44.64;100460.09;5048548;28;20426;-53
2022/08/23 14:40:05;;;;;;;24.35;9.48;;;;;;;25.90;45.93;100452.53;5053466;28;20041;-53
2022/08/23 14:42:52;;;;;;;10.50;4.18;;;;;;;25.86;46.22;100452.69;5043170;28;20402;-52
2022/08/23 14:45:40;;;;;;;6.68;2.00;;;;;;;25.78;46.30;100448.50;5048982;28;20049;-51
2022/08/23 14:48:27;;;;;;;2.63;1.17;;;;;;;25.53;46.84;100442.84;5053008;28;20043;-47
2022/08/23 14:51:31;;;;;;;1.33;0.88;;;;;;;25.35;47.32;100451.09;5052882;28;20185;-54
2022/08/23 14:54:22;;;;;;;4.45;1.38;;;;;;;25.20;47.73;100453.59;5053115;28;20494;-51
2022/08/23 15:01:21;;;;;;;4.45;1.45;;;;;;;25.21;48.90;100451.53;5039511;28;20136;-50
2022/08/23 15:04:08;;;;;;;3.17;1.15;;;;;;;25.25;49.48;100452.22;5054008;28;20041;-53
2022/08/23 15:06:56;;;;;;;2.85;1.00;;;;;;;25.17;49.90;100440.31;5052159;28;20040;-51
2022/08/23 15:10:04;;;;;;;4.75;1.23;;;;;;;25.02;50.44;100439.16;5053710;28;20131;-51
2022/08/23 15:16:52;;;;;;;4.35;1.10;;;;;;;24.95;50.31;100435.75;5053907;28;20041;-50
2022/08/23 15:19:39;;;;;;;2.10;1.08;;;;;;;24.96;50.47;100429.66;5053323;28;20037;-51
2022/08/23 15:26:37;;;;;;;5.88;1.25;;;;;;;25.23;50.33;100440.56;5052166;28;20029;-51
2022/08/23 15:29:25;;;;;;;0.93;0.30;;;;;;;25.16;47.50;100437.94;5052064;28;20123;-50
2022/08/23 15:32:13;;;;;;;1.85;0.30;;;;;;;25.02;45.68;100432.72;5052871;28;20041;-50